Sommer S — WDG3830 — position and weather

sailwx.info

Track history (hours):
 
Tides and Currents Weather Stations Pressure Air Temp Water Temp Dewpoint Dewpoint Depression Visibility Wind Speed Wind Dir Waves Ship Positions

Sommer S

Owner: Shaver Transportation Company, Portland, OR. More information available from US FCC via Universal Licensing System and Coast Guard Vessel Documentation Center.

Last reported at 2016-Jun-28 12:34 UTC. Time now 2016-Jun-28 13:25 UTC.
Position N 46°11' W 123°52'.

Length 25 m; draft 16.5 m.

Type: Tug. MMSI: 367530080.

Date/timePositionNaut miles runAvg speedWind from/ knotsBaromVisibWave heightAir tempDewpointWater temp
2016-Jun-28 12:34N 46°11' W 123°52'0 0.0
2016-Jun-28 11:34N 46°11' W 123°52'0 0.0
2016-Jun-28 10:33N 46°11' W 123°52'0 0.0
2016-Jun-28 09:34N 46°11' W 123°52'0 0.0
2016-Jun-28 08:34N 46°11' W 123°52'0 0.0
2016-Jun-28 07:33N 46°11' W 123°52'0 0.0
2016-Jun-28 06:34N 46°11' W 123°52'5 2.6
2016-Jun-28 04:33N 46°13' W 123°45'1010.1
2016-Jun-28 03:34N 46°16' W 123°31'8 8.2
2016-Jun-28 02:33N 46°09' W 123°24'9 9.4
2016-Jun-28 01:34N 46°11' W 123°10'1111.0
2016-Jun-28 00:33N 46°06' W 122°57'1010.0
2016-Jun-27 23:33N 45°58' W 122°49'1212.3
2016-Jun-27 22:33N 45°45' W 122°46'7 7.3
2016-Jun-27 21:34N 45°38' W 122°44'0 0.2
2016-Jun-27 20:32N 45°38' W 122°44'3 3.4
2016-Jun-27 19:33N 45°35' W 122°45'1 1.5
2016-Jun-27 18:33N 45°34' W 122°44'0 0.0
2016-Jun-27 17:32N 45°34' W 122°44'0 0.0
2016-Jun-27 16:30N 45°34' W 122°44'0 0.0
2016-Jun-27 15:32N 45°34' W 122°44'0 0.4
2016-Jun-27 14:33N 45°34' W 122°44'0 0.4
2016-Jun-27 13:34N 45°34' W 122°43'0 0.0
2016-Jun-27 12:34N 45°34' W 122°43'0 0.3
2016-Jun-27 11:33N 45°34' W 122°44'3 2.8
2016-Jun-27 10:33N 45°36' W 122°47'3 3.2
2016-Jun-27 09:34N 45°39' W 122°45'0 0.0
2016-Jun-27 08:33N 45°39' W 122°45'0 0.2
2016-Jun-27 07:31N 45°39' W 122°45'0 0.0
2016-Jun-27 06:31N 45°39' W 122°45'2 2.3
2016-Jun-27 05:33N 45°38' W 122°42'1 1.1
2016-Jun-27 04:31N 45°38' W 122°44'0 0.0
2016-Jun-27 03:32N 45°38' W 122°44'2 1.5
2016-Jun-27 02:33N 45°38' W 122°42'1 1.1
2016-Jun-27 01:33N 45°38' W 122°43'0 0.4
2016-Jun-27 00:33N 45°38' W 122°44'1 1.0
2016-Jun-26 23:33N 45°38' W 122°42'2 1.8
2016-Jun-26 22:33N 45°39' W 122°45'0 0.0
2016-Jun-26 21:33N 45°39' W 122°45'0 0.3
2016-Jun-26 20:33N 45°39' W 122°45'0 0.0
2016-Jun-26 19:33N 45°39' W 122°45'0 0.0
2016-Jun-26 18:33N 45°39' W 122°45'0 0.0
2016-Jun-26 17:33N 45°39' W 122°45'0 0.0
2016-Jun-26 16:33N 45°39' W 122°45'0 0.3
2016-Jun-26 15:33N 45°39' W 122°45'0 0.0
2016-Jun-26 14:33N 45°39' W 122°45'0 0.0
2016-Jun-26 13:33N 45°39' W 122°45'0 0.0
2016-Jun-26 12:33N 45°39' W 122°45'0 0.0
2016-Jun-26 11:33N 45°39' W 122°45'0 0.0
2016-Jun-26 10:33N 45°39' W 122°45'0 0.0
2016-Jun-26 09:33N 45°39' W 122°45'0 0.4
2016-Jun-26 08:33N 45°39' W 122°44'1 1.5
2016-Jun-26 07:33N 45°39' W 122°46'5 5.1
2016-Jun-26 06:33N 45°34' W 122°44'1 0.7
2016-Jun-26 05:33N 45°35' W 122°45'3 3.4
2016-Jun-26 04:33N 45°37' W 122°47'2 1.9
2016-Jun-26 03:33N 45°39' W 122°45'0 0.0
2016-Jun-26 02:33N 45°39' W 122°45'4 3.8
2016-Jun-26 01:33N 45°42' W 122°46'9 9.0
2016-Jun-26 00:33N 45°51' W 122°47'8 8.5
2016-Jun-25 23:33N 45°59' W 122°51'3 3.4
2016-Jun-25 22:33N 46°03' W 122°53'0 0.3
2016-Jun-25 21:33N 46°03' W 122°53'1 1.0
2016-Jun-25 20:33N 46°02' W 122°52'3 3.4
2016-Jun-25 19:33N 46°05' W 122°54'1 1.4
2016-Jun-25 18:33N 46°05' W 122°56'0 0.0
2016-Jun-25 17:33N 46°05' W 122°56'0 0.0
2016-Jun-25 16:33N 46°05' W 122°56'0 0.0
2016-Jun-25 15:33N 46°05' W 122°56'0 0.0
2016-Jun-25 14:33N 46°05' W 122°56'0 0.3
2016-Jun-25 13:33N 46°06' W 122°56'2 2.3
2016-Jun-25 12:33N 46°07' W 122°59'2 1.9
2016-Jun-25 11:33N 46°06' W 122°57'0 0.0
2016-Jun-25 10:33N 46°06' W 122°57'0 0.0
2016-Jun-25 09:33N 46°06' W 122°57'0 0.0
2016-Jun-25 08:33N 46°06' W 122°57'0 0.0
2016-Jun-25 07:33N 46°06' W 122°57'0 0.1
2016-Jun-25 06:33N 46°06' W 122°56'0 0.2
2016-Jun-25 05:33N 46°06' W 122°56'0 0.0
2016-Jun-25 04:33N 46°06' W 122°56'0 0.1
2016-Jun-25 03:33N 46°06' W 122°56'1 0.6
2016-Jun-25 02:33N 46°05' W 122°56'0 0.0
2016-Jun-25 01:33N 46°05' W 122°56'0 0.0
2016-Jun-25 00:33N 46°05' W 122°56'0 0.0
2016-Jun-24 23:33N 46°05' W 122°56'0 0.0
2016-Jun-24 22:33N 46°05' W 122°56'5 4.6
2016-Jun-24 21:33N 46°02' W 122°52'2 2.1
2016-Jun-24 20:33N 46°04' W 122°53'0 0.3
2016-Jun-24 19:33N 46°03' W 122°53'5 4.8
2016-Jun-24 18:33N 45°59' W 122°50'1 1.2
2016-Jun-24 17:33N 45°60' W 122°51'1 1.2
2016-Jun-24 16:33N 45°59' W 122°50'3 2.8
2016-Jun-24 15:33N 46°01' W 122°52'0 0.3
2016-Jun-24 14:33N 46°02' W 122°52'0 0.0
2016-Jun-24 13:33N 46°02' W 122°52'0 0.0
2016-Jun-24 12:33N 46°02' W 122°52'1 0.9
2016-Jun-24 11:33N 46°03' W 122°53'1 1.1
2016-Jun-24 10:33N 46°04' W 122°53'2 2.3
2016-Jun-24 09:33N 46°05' W 122°55'0 0.0
2016-Jun-24 08:33N 46°05' W 122°55'2 1.9
2016-Jun-24 07:33N 46°06' W 122°58'22 7.4
2016-Jun-24 04:33N 45°46' W 122°46'7 7.4
2016-Jun-24 03:33N 45°39' W 122°45'0 0.0
2016-Jun-24 02:30N 45°39' W 122°45'0 0.0
2016-Jun-24 01:33N 45°39' W 122°45'0 0.0
2016-Jun-24 00:33N 45°39' W 122°45'0 0.0
2016-Jun-23 23:33N 45°39' W 122°45'0 0.0
2016-Jun-23 22:33N 45°39' W 122°45'0 0.0
2016-Jun-23 21:33N 45°39' W 122°45'0 0.0
2016-Jun-23 20:33N 45°39' W 122°45'0 0.0
2016-Jun-23 19:33N 45°39' W 122°45'0 0.0
2016-Jun-23 18:33N 45°39' W 122°45'0 0.0
2016-Jun-23 17:33N 45°39' W 122°45'0 0.0
2016-Jun-23 16:33N 45°39' W 122°45'0 0.0
2016-Jun-23 15:33N 45°39' W 122°45'0 0.0
2016-Jun-23 14:34N 45°39' W 122°45'0 0.0
2016-Jun-23 13:33N 45°39' W 122°45'2 1.5
2016-Jun-23 12:33N 45°40' W 122°46'0 0.3
2016-Jun-23 11:33N 45°40' W 122°46'1 1.3
2016-Jun-23 10:33N 45°39' W 122°45'0 0.0
2016-Jun-23 09:33N 45°39' W 122°45'0 0.0
2016-Jun-23 08:33N 45°39' W 122°45'0 0.0
2016-Jun-23 07:33N 45°39' W 122°45'0 0.0
2016-Jun-23 05:33N 45°39' W 122°45'0 0.0
2016-Jun-23 04:33N 45°39' W 122°45'0 0.0
2016-Jun-23 03:33N 45°39' W 122°45'1 0.8
2016-Jun-23 02:33N 45°39' W 122°44'2 1.9
2016-Jun-23 01:33N 45°38' W 122°42'0 0.2
2016-Jun-23 00:33N 45°38' W 122°42'4 4.0
2016-Jun-22 23:33N 45°35' W 122°46'2 2.1
2016-Jun-22 22:33N 45°34' W 122°43'0 0.4
2016-Jun-22 21:33N 45°34' W 122°44'0 0.0
2016-Jun-22 20:33N 45°34' W 122°44'0 0.1
2016-Jun-22 19:33N 45°34' W 122°44'0 0.0
2016-Jun-22 18:33N 45°34' W 122°44'0 0.0
2016-Jun-22 17:33N 45°34' W 122°44'0 0.0
2016-Jun-22 16:33N 45°34' W 122°44'1 0.5
2016-Jun-22 15:33N 45°34' W 122°44'0 0.2
2016-Jun-22 14:33N 45°34' W 122°44'0 0.3
2016-Jun-22 13:33N 45°34' W 122°44'0 0.0
2016-Jun-22 12:33N 45°34' W 122°44'0 0.1
2016-Jun-22 11:33N 45°34' W 122°44'0 0.0
2016-Jun-22 10:33N 45°34' W 122°44'0 0.1
2016-Jun-22 09:33N 45°34' W 122°44'9 8.8
2016-Jun-22 08:33N 45°42' W 122°46'10 9.5
2016-Jun-22 07:33N 45°52' W 122°47'8 7.6
2016-Jun-22 06:33N 45°59' W 122°50'1 0.6
2016-Jun-22 05:33N 45°60' W 122°51'1 0.7
2016-Jun-22 04:33N 45°59' W 122°50'0 0.0
2016-Jun-22 03:33N 45°59' W 122°50'0 0.0
2016-Jun-22 02:33N 45°59' W 122°50'1 0.9
2016-Jun-22 01:33N 45°60' W 122°51'2 2.1
2016-Jun-22 00:33N 46°02' W 122°52'0 0.0
2016-Jun-21 23:33N 46°02' W 122°52'8 7.5
2016-Jun-21 22:33N 45°55' W 122°48'9 9.2
2016-Jun-21 21:33N 45°46' W 122°46'8 7.6
2016-Jun-21 20:33N 45°38' W 122°43'0 0.4
2016-Jun-21 19:33N 45°38' W 122°44'0 0.0
2016-Jun-21 18:33N 45°38' W 122°44'2 1.5
2016-Jun-21 17:33N 45°38' W 122°42'1 0.6
2016-Jun-21 16:33N 45°38' W 122°42'2 1.8
2016-Jun-21 15:33N 45°39' W 122°45'1 0.8
2016-Jun-21 14:33N 45°38' W 122°44'0 0.0
2016-Jun-21 13:33N 45°38' W 122°44'0 0.0
2016-Jun-21 12:33N 45°38' W 122°44'0 0.0
2016-Jun-21 11:33N 45°38' W 122°44'0 0.0
2016-Jun-21 10:33N 45°38' W 122°44'0 0.0
2016-Jun-21 09:33N 45°38' W 122°44'4 3.6
2016-Jun-21 08:33N 45°41' W 122°46'0 0.0
2016-Jun-21 07:33N 45°41' W 122°46'0 0.0
2016-Jun-21 06:33N 45°41' W 122°46'0 0.0
2016-Jun-21 04:33N 45°41' W 122°46'0 0.0
2016-Jun-21 03:33N 45°41' W 122°46'0 0.0
2016-Jun-21 02:33N 45°41' W 122°46'0 0.1
2016-Jun-21 01:33N 45°41' W 122°46'0 0.0
2016-Jun-21 00:33N 45°41' W 122°46'0 0.0
2016-Jun-20 23:33N 45°41' W 122°46'0 0.0
2016-Jun-20 22:33N 45°41' W 122°46'0 0.0
2016-Jun-20 21:33N 45°41' W 122°46'0 0.4
2016-Jun-20 20:33N 45°41' W 122°47'3 2.8
2016-Jun-20 19:33N 45°39' W 122°45'2 2.3
2016-Jun-20 18:33N 45°38' W 122°42'4 3.9
2016-Jun-20 17:33N 45°37' W 122°47'5 4.6
2016-Jun-20 16:33N 45°34' W 122°44'0 0.0
2016-Jun-20 15:33N 45°34' W 122°44'0 0.3
2016-Jun-20 14:34N 45°34' W 122°44'1 1.1
2016-Jun-20 13:33N 45°35' W 122°45'2 2.3
2016-Jun-20 12:33N 45°36' W 122°47'2 2.2
2016-Jun-20 11:34N 45°38' W 122°47'3 2.8
2016-Jun-20 10:33N 45°38' W 122°43'2 1.5
2016-Jun-20 09:33N 45°39' W 122°45'0 0.0
2016-Jun-20 08:33N 45°39' W 122°45'0 0.0
2016-Jun-20 07:33N 45°39' W 122°45'0 0.0
2016-Jun-20 06:34N 45°39' W 122°45'1 0.8
2016-Jun-20 05:34N 45°39' W 122°45'1 0.7
2016-Jun-20 04:34N 45°39' W 122°45'3 2.8
2016-Jun-20 03:34N 45°41' W 122°46'9 9.0
2016-Jun-20 02:34N 45°50' W 122°47'8 8.0
2016-Jun-20 01:34N 45°58' W 122°50'9 8.5
2016-Jun-20 00:33N 46°05' W 122°56'0 0.0
2016-Jun-19 23:33N 46°05' W 122°56'0 0.0
2016-Jun-19 22:33N 46°05' W 122°56'6 6.1
2016-Jun-19 21:33N 46°00' W 122°51'1 1.3
2016-Jun-19 20:33N 45°59' W 122°50'0 0.2
2016-Jun-19 19:33N 45°59' W 122°50'1 1.4
2016-Jun-19 18:34N 46°00' W 122°51'2 1.6
2016-Jun-19 17:34N 46°02' W 122°52'0 0.0
2016-Jun-19 16:34N 46°02' W 122°52'0 0.0
2016-Jun-19 15:33N 46°02' W 122°52'1 0.6
2016-Jun-19 14:33N 46°01' W 122°52'1 0.5
2016-Jun-19 13:34N 46°02' W 122°52'0 0.0
2016-Jun-19 12:34N 46°02' W 122°52'0 0.0
2016-Jun-19 11:34N 46°02' W 122°52'0 0.0
2016-Jun-19 10:34N 46°02' W 122°52'5 5.1
2016-Jun-19 09:33N 46°06' W 122°56'0 0.2
2016-Jun-19 08:34N 46°06' W 122°57'1 0.6
2016-Jun-19 07:34N 46°05' W 122°56'0 0.0
2016-Jun-19 06:33N 46°05' W 122°56'0 0.0
2016-Jun-19 05:34N 46°05' W 122°56'0 0.2
2016-Jun-19 04:34N 46°05' W 122°56'5 4.7
2016-Jun-19 03:33N 46°01' W 122°52'1312.7
2016-Jun-19 02:34N 45°49' W 122°48'1111.3
2016-Jun-19 01:34N 45°38' W 122°43'0 0.1
2016-Jun-19 00:34N 45°38' W 122°43'0 0.2
2016-Jun-18 23:34N 45°38' W 122°44'2 1.6
2016-Jun-18 22:33N 45°38' W 122°42'3 3.3
2016-Jun-18 21:33N 45°39' W 122°45'0 0.0
2016-Jun-18 20:34N 45°39' W 122°45'0 0.0
2016-Jun-18 19:34N 45°39' W 122°45'0 0.0
2016-Jun-18 18:33N 45°39' W 122°45'0 0.0
2016-Jun-18 17:34N 45°39' W 122°45'0 0.0
2016-Jun-18 16:34N 45°39' W 122°45'0 0.0
2016-Jun-18 15:33N 45°39' W 122°45'1 0.8
2016-Jun-18 14:34N 45°39' W 122°45'0 0.1
2016-Jun-18 13:34N 45°39' W 122°45'  
Track history (hours):
 
Tides and Currents Weather Stations Pressure Air Temp Water Temp Dewpoint Dewpoint Depression Visibility Wind Speed Wind Dir Waves Ship Positions

Sommer S

Owner: Shaver Transportation Company, Portland, OR. More information available from US FCC via Universal Licensing System and Coast Guard Vessel Documentation Center.

Last reported at 2016-Jun-28 12:34 UTC. Time now 2016-Jun-28 13:25 UTC.
Position N 46°11' W 123°52'.

Length 25 m; draft 16.5 m.

Type: Tug. MMSI: 367530080.

Date/timePositionNaut miles runAvg speedWind from/ knotsBaromVisibWave heightAir tempDewpointWater temp
2016-Jun-28 12:34N 46°11' W 123°52'0 0.0
2016-Jun-28 11:34N 46°11' W 123°52'0 0.0
2016-Jun-28 10:33N 46°11' W 123°52'0 0.0
2016-Jun-28 09:34N 46°11' W 123°52'0 0.0
2016-Jun-28 08:34N 46°11' W 123°52'0 0.0
2016-Jun-28 07:33N 46°11' W 123°52'0 0.0
2016-Jun-28 06:34N 46°11' W 123°52'5 2.6
2016-Jun-28 04:33N 46°13' W 123°45'1010.1
2016-Jun-28 03:34N 46°16' W 123°31'8 8.2
2016-Jun-28 02:33N 46°09' W 123°24'9 9.4
2016-Jun-28 01:34N 46°11' W 123°10'1111.0
2016-Jun-28 00:33N 46°06' W 122°57'1010.0
2016-Jun-27 23:33N 45°58' W 122°49'1212.3
2016-Jun-27 22:33N 45°45' W 122°46'7 7.3
2016-Jun-27 21:34N 45°38' W 122°44'0 0.2
2016-Jun-27 20:32N 45°38' W 122°44'3 3.4
2016-Jun-27 19:33N 45°35' W 122°45'1 1.5
2016-Jun-27 18:33N 45°34' W 122°44'0 0.0
2016-Jun-27 17:32N 45°34' W 122°44'0 0.0
2016-Jun-27 16:30N 45°34' W 122°44'0 0.0
2016-Jun-27 15:32N 45°34' W 122°44'0 0.4
2016-Jun-27 14:33N 45°34' W 122°44'0 0.4
2016-Jun-27 13:34N 45°34' W 122°43'0 0.0
2016-Jun-27 12:34N 45°34' W 122°43'0 0.3
2016-Jun-27 11:33N 45°34' W 122°44'3 2.8
2016-Jun-27 10:33N 45°36' W 122°47'3 3.2
2016-Jun-27 09:34N 45°39' W 122°45'0 0.0
2016-Jun-27 08:33N 45°39' W 122°45'0 0.2
2016-Jun-27 07:31N 45°39' W 122°45'0 0.0
2016-Jun-27 06:31N 45°39' W 122°45'2 2.3
2016-Jun-27 05:33N 45°38' W 122°42'1 1.1
2016-Jun-27 04:31N 45°38' W 122°44'0 0.0
2016-Jun-27 03:32N 45°38' W 122°44'2 1.5
2016-Jun-27 02:33N 45°38' W 122°42'1 1.1
2016-Jun-27 01:33N 45°38' W 122°43'0 0.4
2016-Jun-27 00:33N 45°38' W 122°44'1 1.0
2016-Jun-26 23:33N 45°38' W 122°42'2 1.8
2016-Jun-26 22:33N 45°39' W 122°45'0 0.0
2016-Jun-26 21:33N 45°39' W 122°45'0 0.3
2016-Jun-26 20:33N 45°39' W 122°45'0 0.0
2016-Jun-26 19:33N 45°39' W 122°45'0 0.0
2016-Jun-26 18:33N 45°39' W 122°45'0 0.0
2016-Jun-26 17:33N 45°39' W 122°45'0 0.0
2016-Jun-26 16:33N 45°39' W 122°45'0 0.3
2016-Jun-26 15:33N 45°39' W 122°45'0 0.0
2016-Jun-26 14:33N 45°39' W 122°45'0 0.0
2016-Jun-26 13:33N 45°39' W 122°45'0 0.0
2016-Jun-26 12:33N 45°39' W 122°45'0 0.0
2016-Jun-26 11:33N 45°39' W 122°45'0 0.0
2016-Jun-26 10:33N 45°39' W 122°45'0 0.0
2016-Jun-26 09:33N 45°39' W 122°45'0 0.4
2016-Jun-26 08:33N 45°39' W 122°44'1 1.5
2016-Jun-26 07:33N 45°39' W 122°46'5 5.1
2016-Jun-26 06:33N 45°34' W 122°44'1 0.7
2016-Jun-26 05:33N 45°35' W 122°45'3 3.4
2016-Jun-26 04:33N 45°37' W 122°47'2 1.9
2016-Jun-26 03:33N 45°39' W 122°45'0 0.0
2016-Jun-26 02:33N 45°39' W 122°45'4 3.8
2016-Jun-26 01:33N 45°42' W 122°46'9 9.0
2016-Jun-26 00:33N 45°51' W 122°47'8 8.5
2016-Jun-25 23:33N 45°59' W 122°51'3 3.4
2016-Jun-25 22:33N 46°03' W 122°53'0 0.3
2016-Jun-25 21:33N 46°03' W 122°53'1 1.0
2016-Jun-25 20:33N 46°02' W 122°52'3 3.4
2016-Jun-25 19:33N 46°05' W 122°54'1 1.4
2016-Jun-25 18:33N 46°05' W 122°56'0 0.0
2016-Jun-25 17:33N 46°05' W 122°56'0 0.0
2016-Jun-25 16:33N 46°05' W 122°56'0 0.0
2016-Jun-25 15:33N 46°05' W 122°56'0 0.0
2016-Jun-25 14:33N 46°05' W 122°56'0 0.3
2016-Jun-25 13:33N 46°06' W 122°56'2 2.3
2016-Jun-25 12:33N 46°07' W 122°59'2 1.9
2016-Jun-25 11:33N 46°06' W 122°57'0 0.0
2016-Jun-25 10:33N 46°06' W 122°57'0 0.0
2016-Jun-25 09:33N 46°06' W 122°57'0 0.0
2016-Jun-25 08:33N 46°06' W 122°57'0 0.0
2016-Jun-25 07:33N 46°06' W 122°57'0 0.1
2016-Jun-25 06:33N 46°06' W 122°56'0 0.2
2016-Jun-25 05:33N 46°06' W 122°56'0 0.0
2016-Jun-25 04:33N 46°06' W 122°56'0 0.1
2016-Jun-25 03:33N 46°06' W 122°56'1 0.6
2016-Jun-25 02:33N 46°05' W 122°56'0 0.0
2016-Jun-25 01:33N 46°05' W 122°56'0 0.0
2016-Jun-25 00:33N 46°05' W 122°56'0 0.0
2016-Jun-24 23:33N 46°05' W 122°56'0 0.0
2016-Jun-24 22:33N 46°05' W 122°56'5 4.6
2016-Jun-24 21:33N 46°02' W 122°52'2 2.1
2016-Jun-24 20:33N 46°04' W 122°53'0 0.3
2016-Jun-24 19:33N 46°03' W 122°53'5 4.8
2016-Jun-24 18:33N 45°59' W 122°50'1 1.2
2016-Jun-24 17:33N 45°60' W 122°51'1 1.2
2016-Jun-24 16:33N 45°59' W 122°50'3 2.8
2016-Jun-24 15:33N 46°01' W 122°52'0 0.3
2016-Jun-24 14:33N 46°02' W 122°52'0 0.0
2016-Jun-24 13:33N 46°02' W 122°52'0 0.0
2016-Jun-24 12:33N 46°02' W 122°52'1 0.9
2016-Jun-24 11:33N 46°03' W 122°53'1 1.1
2016-Jun-24 10:33N 46°04' W 122°53'2 2.3
2016-Jun-24 09:33N 46°05' W 122°55'0 0.0
2016-Jun-24 08:33N 46°05' W 122°55'2 1.9
2016-Jun-24 07:33N 46°06' W 122°58'22 7.4
2016-Jun-24 04:33N 45°46' W 122°46'7 7.4
2016-Jun-24 03:33N 45°39' W 122°45'0 0.0
2016-Jun-24 02:30N 45°39' W 122°45'0 0.0
2016-Jun-24 01:33N 45°39' W 122°45'0 0.0
2016-Jun-24 00:33N 45°39' W 122°45'0 0.0
2016-Jun-23 23:33N 45°39' W 122°45'0 0.0
2016-Jun-23 22:33N 45°39' W 122°45'0 0.0
2016-Jun-23 21:33N 45°39' W 122°45'0 0.0
2016-Jun-23 20:33N 45°39' W 122°45'0 0.0
2016-Jun-23 19:33N 45°39' W 122°45'0 0.0
2016-Jun-23 18:33N 45°39' W 122°45'0 0.0
2016-Jun-23 17:33N 45°39' W 122°45'0 0.0
2016-Jun-23 16:33N 45°39' W 122°45'0 0.0
2016-Jun-23 15:33N 45°39' W 122°45'0 0.0
2016-Jun-23 14:34N 45°39' W 122°45'0 0.0
2016-Jun-23 13:33N 45°39' W 122°45'2 1.5
2016-Jun-23 12:33N 45°40' W 122°46'0 0.3
2016-Jun-23 11:33N 45°40' W 122°46'1 1.3
2016-Jun-23 10:33N 45°39' W 122°45'0 0.0
2016-Jun-23 09:33N 45°39' W 122°45'0 0.0
2016-Jun-23 08:33N 45°39' W 122°45'0 0.0
2016-Jun-23 07:33N 45°39' W 122°45'0 0.0
2016-Jun-23 05:33N 45°39' W 122°45'0 0.0
2016-Jun-23 04:33N 45°39' W 122°45'0 0.0
2016-Jun-23 03:33N 45°39' W 122°45'1 0.8
2016-Jun-23 02:33N 45°39' W 122°44'2 1.9
2016-Jun-23 01:33N 45°38' W 122°42'0 0.2
2016-Jun-23 00:33N 45°38' W 122°42'4 4.0
2016-Jun-22 23:33N 45°35' W 122°46'2 2.1
2016-Jun-22 22:33N 45°34' W 122°43'0 0.4
2016-Jun-22 21:33N 45°34' W 122°44'0 0.0
2016-Jun-22 20:33N 45°34' W 122°44'0 0.1
2016-Jun-22 19:33N 45°34' W 122°44'0 0.0
2016-Jun-22 18:33N 45°34' W 122°44'0 0.0
2016-Jun-22 17:33N 45°34' W 122°44'0 0.0
2016-Jun-22 16:33N 45°34' W 122°44'1 0.5
2016-Jun-22 15:33N 45°34' W 122°44'0 0.2
2016-Jun-22 14:33N 45°34' W 122°44'0 0.3
2016-Jun-22 13:33N 45°34' W 122°44'0 0.0
2016-Jun-22 12:33N 45°34' W 122°44'0 0.1
2016-Jun-22 11:33N 45°34' W 122°44'0 0.0
2016-Jun-22 10:33N 45°34' W 122°44'0 0.1
2016-Jun-22 09:33N 45°34' W 122°44'9 8.8
2016-Jun-22 08:33N 45°42' W 122°46'10 9.5
2016-Jun-22 07:33N 45°52' W 122°47'8 7.6
2016-Jun-22 06:33N 45°59' W 122°50'1 0.6
2016-Jun-22 05:33N 45°60' W 122°51'1 0.7
2016-Jun-22 04:33N 45°59' W 122°50'0 0.0
2016-Jun-22 03:33N 45°59' W 122°50'0 0.0
2016-Jun-22 02:33N 45°59' W 122°50'1 0.9
2016-Jun-22 01:33N 45°60' W 122°51'2 2.1
2016-Jun-22 00:33N 46°02' W 122°52'0 0.0
2016-Jun-21 23:33N 46°02' W 122°52'8 7.5
2016-Jun-21 22:33N 45°55' W 122°48'9 9.2
2016-Jun-21 21:33N 45°46' W 122°46'8 7.6
2016-Jun-21 20:33N 45°38' W 122°43'0 0.4
2016-Jun-21 19:33N 45°38' W 122°44'0 0.0
2016-Jun-21 18:33N 45°38' W 122°44'2 1.5
2016-Jun-21 17:33N 45°38' W 122°42'1 0.6
2016-Jun-21 16:33N 45°38' W 122°42'2 1.8
2016-Jun-21 15:33N 45°39' W 122°45'1 0.8
2016-Jun-21 14:33N 45°38' W 122°44'0 0.0
2016-Jun-21 13:33N 45°38' W 122°44'0 0.0
2016-Jun-21 12:33N 45°38' W 122°44'0 0.0
2016-Jun-21 11:33N 45°38' W 122°44'0 0.0
2016-Jun-21 10:33N 45°38' W 122°44'0 0.0
2016-Jun-21 09:33N 45°38' W 122°44'4 3.6
2016-Jun-21 08:33N 45°41' W 122°46'0 0.0
2016-Jun-21 07:33N 45°41' W 122°46'0 0.0
2016-Jun-21 06:33N 45°41' W 122°46'0 0.0
2016-Jun-21 04:33N 45°41' W 122°46'0 0.0
2016-Jun-21 03:33N 45°41' W 122°46'0 0.0
2016-Jun-21 02:33N 45°41' W 122°46'0 0.1
2016-Jun-21 01:33N 45°41' W 122°46'0 0.0
2016-Jun-21 00:33N 45°41' W 122°46'0 0.0
2016-Jun-20 23:33N 45°41' W 122°46'0 0.0
2016-Jun-20 22:33N 45°41' W 122°46'0 0.0
2016-Jun-20 21:33N 45°41' W 122°46'0 0.4
2016-Jun-20 20:33N 45°41' W 122°47'3 2.8
2016-Jun-20 19:33N 45°39' W 122°45'2 2.3
2016-Jun-20 18:33N 45°38' W 122°42'4 3.9
2016-Jun-20 17:33N 45°37' W 122°47'5 4.6
2016-Jun-20 16:33N 45°34' W 122°44'0 0.0
2016-Jun-20 15:33N 45°34' W 122°44'0 0.3
2016-Jun-20 14:34N 45°34' W 122°44'1 1.1
2016-Jun-20 13:33N 45°35' W 122°45'2 2.3
2016-Jun-20 12:33N 45°36' W 122°47'2 2.2
2016-Jun-20 11:34N 45°38' W 122°47'3 2.8
2016-Jun-20 10:33N 45°38' W 122°43'2 1.5
2016-Jun-20 09:33N 45°39' W 122°45'0 0.0
2016-Jun-20 08:33N 45°39' W 122°45'0 0.0
2016-Jun-20 07:33N 45°39' W 122°45'0 0.0
2016-Jun-20 06:34N 45°39' W 122°45'1 0.8
2016-Jun-20 05:34N 45°39' W 122°45'1 0.7
2016-Jun-20 04:34N 45°39' W 122°45'3 2.8
2016-Jun-20 03:34N 45°41' W 122°46'9 9.0
2016-Jun-20 02:34N 45°50' W 122°47'8 8.0
2016-Jun-20 01:34N 45°58' W 122°50'9 8.5
2016-Jun-20 00:33N 46°05' W 122°56'0 0.0
2016-Jun-19 23:33N 46°05' W 122°56'0 0.0
2016-Jun-19 22:33N 46°05' W 122°56'6 6.1
2016-Jun-19 21:33N 46°00' W 122°51'1 1.3
2016-Jun-19 20:33N 45°59' W 122°50'0 0.2
2016-Jun-19 19:33N 45°59' W 122°50'1 1.4
2016-Jun-19 18:34N 46°00' W 122°51'2 1.6
2016-Jun-19 17:34N 46°02' W 122°52'0 0.0
2016-Jun-19 16:34N 46°02' W 122°52'0 0.0
2016-Jun-19 15:33N 46°02' W 122°52'1 0.6
2016-Jun-19 14:33N 46°01' W 122°52'1 0.5
2016-Jun-19 13:34N 46°02' W 122°52'0 0.0
2016-Jun-19 12:34N 46°02' W 122°52'0 0.0
2016-Jun-19 11:34N 46°02' W 122°52'0 0.0
2016-Jun-19 10:34N 46°02' W 122°52'5 5.1
2016-Jun-19 09:33N 46°06' W 122°56'0 0.2
2016-Jun-19 08:34N 46°06' W 122°57'1 0.6
2016-Jun-19 07:34N 46°05' W 122°56'0 0.0
2016-Jun-19 06:33N 46°05' W 122°56'0 0.0
2016-Jun-19 05:34N 46°05' W 122°56'0 0.2
2016-Jun-19 04:34N 46°05' W 122°56'5 4.7
2016-Jun-19 03:33N 46°01' W 122°52'1312.7
2016-Jun-19 02:34N 45°49' W 122°48'1111.3
2016-Jun-19 01:34N 45°38' W 122°43'0 0.1
2016-Jun-19 00:34N 45°38' W 122°43'0 0.2
2016-Jun-18 23:34N 45°38' W 122°44'2 1.6
2016-Jun-18 22:33N 45°38' W 122°42'3 3.3
2016-Jun-18 21:33N 45°39' W 122°45'0 0.0
2016-Jun-18 20:34N 45°39' W 122°45'0 0.0
2016-Jun-18 19:34N 45°39' W 122°45'0 0.0
2016-Jun-18 18:33N 45°39' W 122°45'0 0.0
2016-Jun-18 17:34N 45°39' W 122°45'0 0.0
2016-Jun-18 16:34N 45°39' W 122°45'0 0.0
2016-Jun-18 15:33N 45°39' W 122°45'1 0.8
2016-Jun-18 14:34N 45°39' W 122°45'0 0.1
2016-Jun-18 13:34N 45°39' W 122°45'  

Dump ship's entire track history